createdAt,value
2022-08-05T00:00:17.709Z,15.52
2022-08-05T00:01:27.339Z,15.51
2022-08-05T00:02:21.384Z,15.52
2022-08-05T00:03:17.568Z,15.52
2022-08-05T00:04:17.881Z,15.51
2022-08-05T00:06:03.201Z,15.46
2022-08-05T00:06:29.235Z,15.44
2022-08-05T00:07:59.329Z,15.43
2022-08-05T00:08:34.664Z,15.42
2022-08-05T00:09:21.127Z,15.42
2022-08-05T00:10:22.960Z,15.42
2022-08-05T00:11:30.328Z,15.43
2022-08-05T00:12:23.291Z,15.44
2022-08-05T00:13:38.906Z,15.42
2022-08-05T00:14:22.701Z,15.42
2022-08-05T00:15:55.953Z,15.43
2022-08-05T00:16:36.007Z,15.40
2022-08-05T00:17:23.661Z,15.39
2022-08-05T00:18:23.897Z,15.37
2022-08-05T00:19:22.598Z,15.31
2022-08-05T00:20:22.547Z,15.31
2022-08-05T00:21:25.737Z,15.31
2022-08-05T00:22:26.383Z,15.31
2022-08-05T00:23:31.087Z,15.39
2022-08-05T00:24:31.254Z,15.40
2022-08-05T00:25:24.963Z,15.40
2022-08-05T00:26:25.383Z,15.37
2022-08-05T00:27:35.640Z,15.39
2022-08-05T00:28:29.612Z,15.42
2022-08-05T00:29:26.219Z,15.44
2022-08-05T00:30:28.967Z,15.46
2022-08-05T00:31:53.156Z,15.46
2022-08-05T00:32:28.955Z,15.46
2022-08-05T00:34:53.629Z,15.44
2022-08-05T00:34:53.875Z,15.46
2022-08-05T00:35:33.189Z,15.44
2022-08-05T00:37:11.667Z,15.44
2022-08-05T00:37:51.159Z,15.43
2022-08-05T00:38:33.794Z,15.46
2022-08-05T00:39:29.068Z,15.49
2022-08-05T00:40:31.197Z,15.47
2022-08-05T00:41:28.609Z,15.46
2022-08-05T00:42:32.480Z,15.43
2022-08-05T00:43:46.680Z,15.43
2022-08-05T00:44:33.143Z,15.46
2022-08-05T00:45:42.855Z,15.44
2022-08-05T00:46:42.548Z,15.44
2022-08-05T00:47:56.763Z,15.42
2022-08-05T00:48:31.824Z,15.39
2022-08-05T00:49:51.012Z,15.37
2022-08-05T00:50:34.018Z,15.43
2022-08-05T00:51:51.705Z,15.47
2022-08-05T00:52:32.703Z,15.49
2022-08-05T00:53:44.915Z,15.51
2022-08-05T00:54:33.208Z,15.49
2022-08-05T00:55:42.854Z,15.49
2022-08-05T00:56:33.689Z,15.46
2022-08-05T00:57:55.620Z,15.40
2022-08-05T00:58:34.290Z,15.40
2022-08-05T00:59:44.611Z,15.43
2022-08-05T01:00:36.652Z,15.46
2022-08-05T01:01:42.797Z,15.51
2022-08-05T01:02:35.480Z,15.52
2022-08-05T01:03:36.666Z,15.51
2022-08-05T01:04:36.873Z,15.51
2022-08-05T01:05:36.398Z,15.52
2022-08-05T01:06:37.595Z,15.49
2022-08-05T01:07:37.782Z,15.46
2022-08-05T01:08:42.818Z,15.46
2022-08-05T01:09:39.522Z,15.52
2022-08-05T01:10:36.853Z,15.57
2022-08-05T01:11:40.963Z,15.58
2022-08-05T01:12:39.178Z,15.61
2022-08-05T01:13:58.390Z,15.62
2022-08-05T01:14:38.849Z,15.65
2022-08-05T01:15:38.191Z,15.70
2022-08-05T01:16:44.260Z,15.73
2022-08-05T01:17:40.249Z,15.77
2022-08-05T01:18:40.172Z,15.79
2022-08-05T01:20:01.417Z,15.80
2022-08-05T01:20:40.755Z,15.82
2022-08-05T01:21:40.839Z,15.84
2022-08-05T01:22:42.194Z,15.88
2022-08-05T01:23:40.580Z,15.88
2022-08-05T01:24:40.873Z,15.84
2022-08-05T01:25:41.674Z,15.86
2022-08-05T01:26:42.407Z,15.84
2022-08-05T01:27:54.860Z,15.82
2022-08-05T01:28:42.942Z,15.82
2022-08-05T01:29:42.963Z,15.84
2022-08-05T01:30:53.502Z,15.84
2022-08-05T01:31:45.354Z,15.86
2022-08-05T01:32:43.874Z,15.88
2022-08-05T01:33:48.896Z,15.86
2022-08-05T01:34:43.578Z,15.88
2022-08-05T01:35:51.940Z,15.86
2022-08-05T01:36:47.078Z,15.86
2022-08-05T01:37:44.689Z,15.88
2022-08-05T01:38:48.525Z,15.86
2022-08-05T01:39:47.979Z,15.86
2022-08-05T01:40:45.209Z,15.84
2022-08-05T01:41:47.048Z,15.84
2022-08-05T01:42:47.811Z,15.86
2022-08-05T01:43:48.910Z,15.90
2022-08-05T01:44:53.840Z,15.88
2022-08-05T01:45:47.725Z,15.88
2022-08-05T01:46:48.936Z,15.88
2022-08-05T01:47:47.846Z,15.86
2022-08-05T01:48:49.419Z,15.84
2022-08-05T01:50:02.057Z,15.84
2022-08-05T01:50:51.134Z,15.84
2022-08-05T01:51:51.838Z,15.84
2022-08-05T01:52:49.955Z,15.86
2022-08-05T01:53:58.075Z,15.84
2022-08-05T01:54:52.902Z,15.83
2022-08-05T01:55:49.442Z,15.86
2022-08-05T01:58:11.774Z,15.84
2022-08-05T01:58:29.705Z,15.84
2022-08-05T01:58:51.806Z,15.84
2022-08-05T01:59:52.648Z,15.84
2022-08-05T02:00:50.965Z,15.84
2022-08-05T02:01:52.177Z,15.86
2022-08-05T02:02:55.123Z,15.83
2022-08-05T02:03:51.670Z,15.83
2022-08-05T02:04:53.874Z,15.82
2022-08-05T02:05:59.929Z,15.80
2022-08-05T02:06:55.074Z,15.79
2022-08-05T02:08:00.149Z,15.79
2022-08-05T02:08:58.800Z,15.80
2022-08-05T02:09:53.508Z,15.79
2022-08-05T02:10:56.663Z,15.77
2022-08-05T02:11:56.665Z,15.77
2022-08-05T02:12:54.435Z,15.79
2022-08-05T02:13:56.610Z,15.76
2022-08-05T02:14:54.998Z,15.73
2022-08-05T02:15:57.181Z,15.68
2022-08-05T02:16:56.351Z,15.67
2022-08-05T02:18:28.478Z,15.64
2022-08-05T02:18:57.083Z,15.64
2022-08-05T02:19:56.349Z,15.61
2022-08-05T02:20:58.768Z,15.61
2022-08-05T02:21:57.867Z,15.61
2022-08-05T02:22:57.194Z,15.58
2022-08-05T02:23:57.505Z,15.55
2022-08-05T02:24:57.811Z,15.55
2022-08-05T02:26:00.037Z,15.54
2022-08-05T02:27:00.388Z,15.55
2022-08-05T02:28:00.470Z,15.54
2022-08-05T02:28:59.035Z,15.55
2022-08-05T02:30:00.742Z,15.54
2022-08-05T02:31:01.515Z,15.55
2022-08-05T02:32:05.025Z,15.55
2022-08-05T02:33:01.902Z,15.57
2022-08-05T02:34:00.503Z,15.59
2022-08-05T02:35:09.555Z,15.61
2022-08-05T02:36:03.998Z,15.59
2022-08-05T02:37:04.519Z,15.65
2022-08-05T02:38:03.370Z,15.68
2022-08-05T02:39:02.954Z,15.72
2022-08-05T02:40:04.225Z,15.76
2022-08-05T02:41:14.468Z,15.75
2022-08-05T02:42:05.251Z,15.77
2022-08-05T02:43:07.342Z,15.77
2022-08-05T02:44:06.880Z,15.80
2022-08-05T02:45:06.471Z,15.80
2022-08-05T02:46:04.784Z,15.80
2022-08-05T02:47:05.652Z,15.82
2022-08-05T02:48:11.540Z,15.83
2022-08-05T02:49:05.734Z,15.90
2022-08-05T02:50:07.919Z,15.91
2022-08-05T02:51:05.325Z,15.92
2022-08-05T02:52:06.503Z,15.92
2022-08-05T02:53:07.368Z,15.95
2022-08-05T02:54:08.098Z,15.95
2022-08-05T02:55:10.729Z,15.98
2022-08-05T02:56:09.590Z,16.00
2022-08-05T02:57:10.252Z,16.01
2022-08-05T02:58:13.077Z,15.98
2022-08-05T02:59:07.739Z,16.00
2022-08-05T03:00:07.931Z,16.00
2022-08-05T03:01:10.191Z,15.98
2022-08-05T03:02:12.196Z,15.95
2022-08-05T03:03:10.553Z,15.90
2022-08-05T03:04:12.935Z,15.84
2022-08-05T03:05:11.214Z,15.80
2022-08-05T03:06:55.670Z,15.76
2022-08-05T03:07:24.680Z,15.75
2022-08-05T03:08:11.392Z,15.72
2022-08-05T03:09:12.340Z,15.67
2022-08-05T03:10:11.635Z,15.62
2022-08-05T03:11:55.164Z,15.57
2022-08-05T03:12:14.098Z,15.58
2022-08-05T03:13:16.913Z,15.58
2022-08-05T03:14:13.247Z,15.61
2022-08-05T03:15:12.387Z,15.58
2022-08-05T03:16:12.270Z,15.54
2022-08-05T03:17:15.643Z,15.49
2022-08-05T03:18:12.804Z,15.44
2022-08-05T03:19:33.165Z,15.44
2022-08-05T03:20:14.442Z,15.43
2022-08-05T03:21:15.618Z,15.47
2022-08-05T03:22:19.035Z,15.46
2022-08-05T03:23:15.279Z,15.44
2022-08-05T03:24:14.529Z,15.40
2022-08-05T03:25:33.016Z,15.37
2022-08-05T03:26:30.844Z,15.36
2022-08-05T03:27:20.586Z,15.35
2022-08-05T03:28:18.648Z,15.31
2022-08-05T03:29:17.361Z,15.29
2022-08-05T03:30:16.259Z,15.25
2022-08-05T03:31:25.829Z,15.22
2022-08-05T03:32:21.691Z,15.22
2022-08-05T03:33:18.031Z,15.19
2022-08-05T03:34:17.311Z,15.11
2022-08-05T03:35:17.655Z,15.09
2022-08-05T03:36:17.928Z,15.09
2022-08-05T03:37:23.409Z,15.07
2022-08-05T03:38:19.480Z,15.07
2022-08-05T03:39:20.317Z,15.03
2022-08-05T03:40:31.303Z,15.02
2022-08-05T03:41:20.280Z,14.97
2022-08-05T03:42:23.462Z,14.96
2022-08-05T03:44:08.756Z,14.96
2022-08-05T03:44:21.437Z,14.94
2022-08-05T03:45:22.585Z,14.92
2022-08-05T03:46:22.783Z,14.92
2022-08-05T03:47:25.331Z,14.92
2022-08-05T03:48:24.178Z,14.89
2022-08-05T03:49:24.206Z,14.82
2022-08-05T03:50:23.073Z,14.77
2022-08-05T03:52:38.911Z,14.68
2022-08-05T03:52:39.200Z,14.65
2022-08-05T03:54:59.412Z,14.65
2022-08-05T03:55:34.061Z,14.66
2022-08-05T03:56:04.693Z,14.73
2022-08-05T03:56:27.893Z,14.82
2022-08-05T03:57:29.025Z,14.85
2022-08-05T03:58:28.900Z,14.88
2022-08-05T03:59:24.573Z,14.86
2022-08-05T04:00:24.732Z,14.85
2022-08-05T04:01:25.001Z,14.81
2022-08-05T04:02:39.194Z,14.72
2022-08-05T04:03:30.489Z,14.78
2022-08-05T04:04:26.506Z,14.78
2022-08-05T04:05:26.065Z,14.82
2022-08-05T04:06:26.393Z,14.82
2022-08-05T04:07:28.591Z,14.82
2022-08-05T04:08:34.858Z,14.86
2022-08-05T04:09:28.155Z,14.86
2022-08-05T04:10:27.916Z,14.92
2022-08-05T04:11:50.945Z,14.96
2022-08-05T04:12:29.913Z,14.96
2022-08-05T04:13:50.234Z,14.96
2022-08-05T04:14:32.910Z,14.94
2022-08-05T04:15:33.337Z,14.96
2022-08-05T04:16:33.390Z,14.94
2022-08-05T04:17:55.699Z,14.94
2022-08-05T04:18:31.531Z,14.91
2022-08-05T04:19:33.180Z,14.88
2022-08-05T04:20:33.388Z,14.85
2022-08-05T04:22:08.963Z,14.85
2022-08-05T04:22:33.600Z,14.81
2022-08-05T04:24:04.754Z,14.77
2022-08-05T04:24:33.681Z,14.77
2022-08-05T04:25:57.714Z,14.78
2022-08-05T04:26:33.831Z,14.73
2022-08-05T04:27:43.600Z,14.72
2022-08-05T04:28:33.303Z,14.72
2022-08-05T04:29:33.542Z,14.73
2022-08-05T04:30:34.782Z,14.84
2022-08-05T04:31:38.657Z,14.91
2022-08-05T04:32:34.451Z,14.96
2022-08-05T04:34:18.940Z,15.02
2022-08-05T04:34:37.490Z,15.04
2022-08-05T04:36:16.321Z,15.04
2022-08-05T04:36:46.224Z,15.07
2022-08-05T04:38:02.386Z,15.10
2022-08-05T04:38:39.586Z,15.11
2022-08-05T04:39:36.206Z,15.14
2022-08-05T04:40:37.413Z,15.15
2022-08-05T04:41:38.800Z,15.18
2022-08-05T04:42:39.067Z,15.22
2022-08-05T04:43:36.487Z,15.24
2022-08-05T04:44:36.823Z,15.24
2022-08-05T04:45:48.991Z,15.25
2022-08-05T04:46:38.306Z,15.25
2022-08-05T04:47:42.877Z,15.24
2022-08-05T04:48:40.673Z,15.24
2022-08-05T04:50:01.769Z,15.24
2022-08-05T04:51:01.724Z,15.25
2022-08-05T04:51:41.598Z,15.27
2022-08-05T04:52:40.306Z,15.28
2022-08-05T04:53:39.941Z,15.33
2022-08-05T04:54:39.500Z,15.39
2022-08-05T04:56:15.490Z,15.42
2022-08-05T04:56:42.467Z,15.43
2022-08-05T04:57:42.167Z,15.46
2022-08-05T04:58:41.513Z,15.52
2022-08-05T04:59:40.983Z,15.52
2022-08-05T05:00:41.019Z,15.57
2022-08-05T05:02:07.570Z,15.59
2022-08-05T05:02:43.266Z,15.62
2022-08-05T05:03:42.794Z,15.67
2022-08-05T05:04:43.940Z,15.70
2022-08-05T05:06:40.241Z,15.76
2022-08-05T05:06:49.234Z,15.83
2022-08-05T05:07:45.729Z,15.95
2022-08-05T05:08:50.086Z,16.05
2022-08-05T05:09:43.462Z,16.10
2022-08-05T05:10:47.310Z,16.15
2022-08-05T05:11:53.176Z,16.17
2022-08-05T05:12:45.378Z,16.29
2022-08-05T05:13:47.070Z,16.36
2022-08-05T05:14:49.336Z,16.46
2022-08-05T05:15:57.364Z,16.42
2022-08-05T05:16:50.631Z,16.41
2022-08-05T05:17:56.840Z,16.43
2022-08-05T05:19:02.751Z,16.49
2022-08-05T05:19:47.632Z,16.56
2022-08-05T05:20:48.394Z,16.58
2022-08-05T05:21:48.732Z,16.61
2022-08-05T05:22:49.968Z,16.66
2022-08-05T05:24:02.715Z,16.72
2022-08-05T05:24:59.004Z,16.78
2022-08-05T05:25:48.863Z,16.75
2022-08-05T05:26:51.971Z,16.76
2022-08-05T05:27:54.042Z,16.83
2022-08-05T05:28:49.653Z,16.89
2022-08-05T05:30:04.403Z,16.94
2022-08-05T05:30:52.242Z,16.97
2022-08-05T05:31:50.372Z,17.04
2022-08-05T05:32:51.684Z,17.06
2022-08-05T05:33:59.551Z,17.14
2022-08-05T05:34:52.316Z,17.20
2022-08-05T05:35:52.526Z,17.22
2022-08-05T05:36:54.674Z,17.39
2022-08-05T05:38:00.001Z,17.89
2022-08-05T05:38:52.375Z,18.22
2022-08-05T05:39:51.918Z,18.38
2022-08-05T05:40:52.834Z,18.65
2022-08-05T05:41:54.272Z,18.75
2022-08-05T05:42:54.603Z,18.96
2022-08-05T05:43:58.117Z,19.21
2022-08-05T05:44:54.226Z,19.30
2022-08-05T05:45:54.505Z,19.16
2022-08-05T05:46:55.288Z,19.39
2022-08-05T05:48:06.780Z,19.30
2022-08-05T05:48:57.265Z,19.22
2022-08-05T05:50:01.324Z,18.92
2022-08-05T05:50:55.817Z,18.74
2022-08-05T05:51:58.990Z,18.71
2022-08-05T05:52:55.564Z,18.60
2022-08-05T05:53:59.783Z,18.59
2022-08-05T05:54:55.970Z,18.40
2022-08-05T05:56:00.843Z,18.43
2022-08-05T05:57:00.525Z,18.40
2022-08-05T05:57:56.728Z,18.34
2022-08-05T05:58:57.956Z,18.34
2022-08-05T05:59:58.231Z,18.29
2022-08-05T06:00:57.531Z,18.29
2022-08-05T06:02:02.084Z,18.25
2022-08-05T06:02:59.932Z,18.22
2022-08-05T06:04:01.683Z,18.37
2022-08-05T06:04:59.710Z,18.47
2022-08-05T06:05:58.931Z,18.52
2022-08-05T06:07:02.095Z,18.62
2022-08-05T06:08:02.014Z,18.81
2022-08-05T06:09:01.593Z,18.95
2022-08-05T06:10:04.711Z,18.68
2022-08-05T06:11:01.245Z,18.41
2022-08-05T06:12:02.999Z,18.43
2022-08-05T06:13:02.691Z,18.23
2022-08-05T06:14:01.228Z,18.13
2022-08-05T06:15:03.405Z,18.01
2022-08-05T06:16:31.400Z,17.87
2022-08-05T06:17:22.359Z,17.82
2022-08-05T06:18:05.300Z,17.70
2022-08-05T06:19:05.929Z,17.64
2022-08-05T06:20:04.678Z,17.64
2022-08-05T06:21:03.247Z,17.60
2022-08-05T06:22:06.906Z,17.64
2022-08-05T06:23:04.151Z,17.71
2022-08-05T06:24:11.750Z,17.72
2022-08-05T06:25:59.302Z,17.67
2022-08-05T06:26:13.388Z,17.67
2022-08-05T06:28:09.062Z,17.60
2022-08-05T06:28:09.337Z,17.63
2022-08-05T06:29:43.142Z,17.56
2022-08-05T06:30:18.146Z,17.45
2022-08-05T06:31:11.257Z,17.33
2022-08-05T06:32:17.243Z,17.31
2022-08-05T06:33:09.851Z,17.38
2022-08-05T06:34:10.351Z,17.36
2022-08-05T06:35:21.662Z,17.31
2022-08-05T06:36:10.183Z,17.27
2022-08-05T06:37:11.064Z,17.31
2022-08-05T06:38:11.605Z,17.38
2022-08-05T06:39:12.134Z,17.41
2022-08-05T06:40:09.441Z,17.42
2022-08-05T06:41:09.602Z,17.45
2022-08-05T06:42:11.821Z,17.48
2022-08-05T06:43:58.839Z,17.51
2022-08-05T06:44:10.741Z,17.51
2022-08-05T06:45:09.937Z,17.57
2022-08-05T06:46:13.153Z,17.59
2022-08-05T06:48:11.436Z,17.63
2022-08-05T06:48:50.384Z,17.60
2022-08-05T06:49:13.456Z,17.65
2022-08-05T06:50:17.393Z,17.70
2022-08-05T06:51:26.666Z,17.79
2022-08-05T06:52:36.794Z,17.83
2022-08-05T06:53:22.393Z,17.86
2022-08-05T06:54:19.124Z,17.90
2022-08-05T06:55:15.177Z,17.95
2022-08-05T06:56:25.947Z,17.97
2022-08-05T06:57:58.198Z,18.01
2022-08-05T06:58:20.250Z,18.13
2022-08-05T06:59:16.689Z,18.22
2022-08-05T07:00:22.307Z,18.22
2022-08-05T07:01:15.537Z,18.25
2022-08-05T07:02:15.737Z,18.31
2022-08-05T07:03:17.924Z,18.34
2022-08-05T07:04:19.246Z,18.34
2022-08-05T07:05:21.348Z,18.26
2022-08-05T07:06:16.672Z,18.26
2022-08-05T07:07:16.441Z,18.23
2022-08-05T07:08:19.328Z,18.25
2022-08-05T07:09:18.520Z,18.19
2022-08-05T07:10:18.698Z,18.10
2022-08-05T07:11:17.227Z,18.10
2022-08-05T07:12:20.384Z,18.10
2022-08-05T07:13:52.480Z,18.10
2022-08-05T07:14:29.821Z,18.16
2022-08-05T07:15:34.344Z,18.04
2022-08-05T07:17:59.397Z,17.97
2022-08-05T07:18:00.995Z,17.98
2022-08-05T07:18:28.924Z,17.92
2022-08-05T07:20:10.690Z,17.94
2022-08-05T07:20:37.171Z,18.00
2022-08-05T07:21:25.825Z,17.98
2022-08-05T07:22:27.812Z,17.94
2022-08-05T07:23:26.096Z,17.97
2022-08-05T07:24:22.423Z,17.87
2022-08-05T07:25:54.654Z,17.89
2022-08-05T07:26:22.913Z,17.87
2022-08-05T07:27:27.238Z,17.89
2022-08-05T07:28:23.662Z,18.00
2022-08-05T07:29:25.439Z,18.04
2022-08-05T07:30:28.496Z,18.04
2022-08-05T07:31:40.846Z,18.05
2022-08-05T07:32:26.042Z,18.07
2022-08-05T07:33:36.541Z,18.10
2022-08-05T07:34:28.540Z,18.15
2022-08-05T07:36:04.334Z,18.23
2022-08-05T07:36:25.194Z,18.16
2022-08-05T07:37:28.885Z,18.23
2022-08-05T07:38:32.493Z,18.31
2022-08-05T07:40:25.973Z,18.40
2022-08-05T07:40:32.829Z,18.44
2022-08-05T07:42:07.881Z,18.43
2022-08-05T07:42:33.806Z,18.45
2022-08-05T07:43:29.008Z,18.50
2022-08-05T07:44:28.385Z,18.49
2022-08-05T07:45:56.774Z,18.41
2022-08-05T07:46:29.573Z,18.41
2022-08-05T07:47:27.206Z,18.37
2022-08-05T07:49:00.348Z,18.49
2022-08-05T07:49:32.600Z,18.55
2022-08-05T07:50:33.572Z,18.59
2022-08-05T07:51:36.835Z,18.45
2022-08-05T07:52:29.505Z,18.52
2022-08-05T07:53:36.818Z,18.50
2022-08-05T07:54:33.572Z,18.52
2022-08-05T07:55:57.191Z,18.40
2022-08-05T07:57:00.101Z,18.33
2022-08-05T07:57:55.200Z,18.33
2022-08-05T07:58:54.959Z,18.26
2022-08-05T07:59:39.840Z,18.29
2022-08-05T08:00:31.737Z,18.25
2022-08-05T08:01:31.109Z,18.38
2022-08-05T08:03:14.208Z,18.40
2022-08-05T08:03:44.046Z,18.44
2022-08-05T08:04:37.948Z,18.47
2022-08-05T08:05:33.244Z,18.59
2022-08-05T08:06:33.521Z,18.77
2022-08-05T08:07:39.696Z,18.90
2022-08-05T08:08:34.161Z,18.95
2022-08-05T08:09:34.438Z,18.75
2022-08-05T08:10:35.684Z,18.59
2022-08-05T08:11:47.659Z,18.55
2022-08-05T08:12:49.296Z,18.52
2022-08-05T08:13:42.720Z,18.44
2022-08-05T08:14:37.276Z,18.43
2022-08-05T08:16:33.987Z,18.43
2022-08-05T08:16:50.287Z,18.50
2022-08-05T08:17:38.505Z,18.65
2022-08-05T08:18:35.956Z,18.63
2022-08-05T08:20:22.756Z,18.73
2022-08-05T08:20:45.074Z,18.84
2022-08-05T08:21:37.763Z,18.88
2022-08-05T08:22:37.055Z,18.92
2022-08-05T08:24:03.842Z,18.86
2022-08-05T08:24:50.979Z,18.83
2022-08-05T08:26:00.853Z,18.80
2022-08-05T08:26:39.170Z,18.81
2022-08-05T08:27:45.131Z,18.84
2022-08-05T08:29:02.379Z,18.84
2022-08-05T08:30:05.171Z,18.88
2022-08-05T08:30:47.843Z,18.88
2022-08-05T08:31:40.528Z,18.80
2022-08-05T08:32:39.850Z,18.74
2022-08-05T08:33:41.966Z,18.73
2022-08-05T08:34:41.252Z,18.88
2022-08-05T08:35:53.970Z,18.83
2022-08-05T08:36:48.924Z,18.99
2022-08-05T08:37:46.173Z,19.07
2022-08-05T08:38:43.428Z,19.09
2022-08-05T08:39:49.750Z,19.31
2022-08-05T08:40:42.034Z,19.62
2022-08-05T08:41:52.412Z,19.85
2022-08-05T08:42:50.519Z,19.99
2022-08-05T08:45:22.721Z,20.13
2022-08-05T08:45:25.130Z,20.13
2022-08-05T08:45:45.896Z,20.22
2022-08-05T08:46:45.632Z,20.36
2022-08-05T08:48:05.811Z,20.31
2022-08-05T08:49:06.279Z,20.44
2022-08-05T08:50:23.269Z,20.60
2022-08-05T08:51:03.902Z,21.00
2022-08-05T08:52:05.786Z,21.12
2022-08-05T08:52:52.806Z,21.15
2022-08-05T08:53:48.519Z,20.96
2022-08-05T08:54:48.807Z,20.56
2022-08-05T08:56:03.672Z,20.07
2022-08-05T08:56:49.526Z,19.86
2022-08-05T08:57:57.876Z,19.84
2022-08-05T08:58:50.608Z,20.11
2022-08-05T08:59:50.169Z,20.37
2022-08-05T09:00:47.569Z,20.18
2022-08-05T09:01:57.556Z,20.18
2022-08-05T09:02:49.067Z,20.41
2022-08-05T09:03:55.207Z,21.42
2022-08-05T09:05:16.066Z,22.06
2022-08-05T09:06:08.949Z,22.11
2022-08-05T09:06:50.170Z,22.04
2022-08-05T09:07:57.823Z,22.18
2022-08-05T09:08:50.709Z,22.08
2022-08-05T09:09:53.004Z,21.96
2022-08-05T09:10:50.331Z,21.50
2022-08-05T09:11:55.311Z,21.12
2022-08-05T09:12:53.710Z,20.81
2022-08-05T09:14:09.149Z,20.50
2022-08-05T09:14:59.298Z,20.63
2022-08-05T09:15:52.613Z,20.92
2022-08-05T09:16:53.802Z,21.45
2022-08-05T09:17:53.259Z,21.61
2022-08-05T09:18:52.552Z,21.98
2022-08-05T09:20:02.772Z,22.20
2022-08-05T09:20:54.166Z,22.32
2022-08-05T09:22:22.751Z,22.35
2022-08-05T09:22:54.725Z,21.95
2022-08-05T09:23:58.190Z,21.11
2022-08-05T09:24:59.200Z,20.81
2022-08-05T09:26:01.308Z,21.17
2022-08-05T09:26:57.738Z,21.76
2022-08-05T09:28:05.094Z,22.22
2022-08-05T09:28:56.390Z,21.73
2022-08-05T09:30:02.238Z,20.92
2022-08-05T09:30:58.787Z,21.43
2022-08-05T09:32:40.812Z,21.42
2022-08-05T09:32:59.315Z,21.61
2022-08-05T09:33:56.766Z,22.55
2022-08-05T09:34:58.028Z,23.47
2022-08-05T09:35:58.757Z,23.23
2022-08-05T09:37:00.058Z,22.65
2022-08-05T09:38:16.488Z,21.91
2022-08-05T09:39:00.827Z,21.39
2022-08-05T09:40:01.433Z,21.67
2022-08-05T09:40:58.738Z,22.00
2022-08-05T09:42:00.958Z,22.43
2022-08-05T09:42:59.197Z,22.54
2022-08-05T09:43:59.533Z,22.73
2022-08-05T09:46:04.619Z,23.08
2022-08-05T09:46:06.253Z,23.59
2022-08-05T09:47:03.122Z,24.63
2022-08-05T09:48:03.290Z,25.07
2022-08-05T09:49:07.832Z,24.89
2022-08-05T09:50:05.033Z,24.36
2022-08-05T09:51:01.383Z,23.18
2022-08-05T09:52:03.524Z,22.53
2022-08-05T09:53:01.843Z,22.17
2022-08-05T09:54:04.014Z,21.96
2022-08-05T09:55:55.518Z,21.72
2022-08-05T09:56:04.830Z,21.33
2022-08-05T09:57:05.892Z,20.99
2022-08-05T09:58:06.056Z,20.90
2022-08-05T09:59:04.162Z,20.72
2022-08-05T10:00:08.293Z,20.74
2022-08-05T10:01:14.615Z,20.78
2022-08-05T10:02:05.372Z,20.81
2022-08-05T10:03:06.579Z,20.74
2022-08-05T10:04:10.541Z,20.74
2022-08-05T10:05:08.199Z,20.72
2022-08-05T10:06:15.513Z,20.81
2022-08-05T10:07:19.907Z,20.85
2022-08-05T10:08:10.628Z,20.96
2022-08-05T10:09:09.241Z,20.90
2022-08-05T10:10:15.069Z,20.78
2022-08-05T10:11:07.850Z,20.55
2022-08-05T10:12:30.562Z,20.39
2022-08-05T10:13:09.841Z,20.24
2022-08-05T10:14:07.694Z,20.10
2022-08-05T10:15:11.363Z,20.14
2022-08-05T10:16:08.291Z,20.24
2022-08-05T10:17:08.538Z,20.32
2022-08-05T10:18:12.577Z,20.36
2022-08-05T10:19:10.178Z,20.41
2022-08-05T10:20:10.095Z,20.52
2022-08-05T10:21:15.619Z,20.63
2022-08-05T10:22:15.555Z,20.70
2022-08-05T10:23:34.300Z,20.69
2022-08-05T10:24:13.773Z,20.70
2022-08-05T10:25:14.380Z,20.65
2022-08-05T10:26:14.035Z,20.43
2022-08-05T10:27:11.282Z,20.36
2022-08-05T10:28:16.979Z,20.32
2022-08-05T10:29:17.169Z,20.26
2022-08-05T10:31:20.651Z,20.21
2022-08-05T10:32:51.032Z,20.24
2022-08-05T10:32:54.508Z,20.29
2022-08-05T10:33:15.043Z,20.48
2022-08-05T10:34:13.089Z,20.81
2022-08-05T10:35:17.269Z,21.02
2022-08-05T10:36:13.599Z,21.37
2022-08-05T10:37:15.784Z,21.69
2022-08-05T10:38:15.974Z,21.82
2022-08-05T10:39:24.047Z,21.60
2022-08-05T10:40:17.924Z,21.75
2022-08-05T10:41:15.974Z,22.06
2022-08-05T10:42:32.319Z,22.02
2022-08-05T10:43:20.313Z,21.76
2022-08-05T10:44:15.811Z,21.72
2022-08-05T10:45:21.180Z,21.80
2022-08-05T10:46:18.343Z,22.11
2022-08-05T10:47:25.879Z,22.30
2022-08-05T10:48:31.550Z,22.28
2022-08-05T10:49:26.544Z,22.11
2022-08-05T10:50:36.261Z,22.14
2022-08-05T10:51:21.777Z,22.36
2022-08-05T10:52:17.935Z,22.68
2022-08-05T10:53:18.278Z,23.09
2022-08-05T10:54:31.113Z,23.66
2022-08-05T10:55:38.629Z,24.20
2022-08-05T10:56:30.441Z,24.10
2022-08-05T10:57:33.727Z,23.73
2022-08-05T10:58:35.877Z,23.65
2022-08-05T11:00:02.640Z,23.34
2022-08-05T11:00:31.512Z,22.45
2022-08-05T11:01:54.836Z,22.28
2022-08-05T11:02:37.859Z,22.28
2022-08-05T11:03:33.620Z,22.38
2022-08-05T11:04:31.690Z,22.35
2022-08-05T11:05:35.789Z,22.48
2022-08-05T11:06:32.238Z,22.59
2022-08-05T11:07:33.097Z,22.50
2022-08-05T11:08:37.261Z,22.11
2022-08-05T11:09:45.451Z,22.48
2022-08-05T11:10:36.169Z,22.45
2022-08-05T11:11:52.234Z,22.38
2022-08-05T11:12:34.940Z,22.45
2022-08-05T11:13:34.261Z,22.44
2022-08-05T11:15:01.424Z,22.41
2022-08-05T11:16:00.642Z,22.30
2022-08-05T11:16:56.719Z,22.29
2022-08-05T11:17:57.969Z,22.38
2022-08-05T11:18:37.554Z,22.35
2022-08-05T11:20:17.127Z,22.28
2022-08-05T11:20:41.674Z,22.00
2022-08-05T11:21:48.891Z,21.79
2022-08-05T11:22:37.605Z,21.89
2022-08-05T11:24:02.579Z,21.93
2022-08-05T11:24:40.085Z,21.93
2022-08-05T11:26:04.712Z,22.00
2022-08-05T11:26:38.731Z,22.14
2022-08-05T11:27:51.025Z,22.30
2022-08-05T11:28:39.311Z,22.39
2022-08-05T11:29:40.487Z,22.68
2022-08-05T11:30:38.798Z,22.87
2022-08-05T11:31:57.147Z,22.96
2022-08-05T11:32:42.270Z,22.85
2022-08-05T11:33:46.110Z,22.80
2022-08-05T11:34:39.891Z,22.94
2022-08-05T11:36:07.402Z,22.80
2022-08-05T11:36:42.900Z,22.53
2022-08-05T11:38:28.889Z,22.35
2022-08-05T11:38:45.962Z,22.35
2022-08-05T11:39:48.195Z,22.20
2022-08-05T11:40:42.336Z,22.15
2022-08-05T11:42:01.335Z,22.06
2022-08-05T11:42:43.051Z,21.99
2022-08-05T11:44:06.417Z,21.98
2022-08-05T11:44:53.611Z,21.85
2022-08-05T11:46:16.182Z,22.00
2022-08-05T11:46:58.266Z,22.22
2022-08-05T11:47:49.933Z,22.75
2022-08-05T11:48:44.679Z,23.13
2022-08-05T11:49:49.871Z,23.50
2022-08-05T11:50:44.280Z,23.54
2022-08-05T11:51:49.494Z,23.23
2022-08-05T11:52:48.388Z,22.44
2022-08-05T11:53:45.127Z,22.13
2022-08-05T11:54:48.520Z,21.91
2022-08-05T11:55:48.477Z,21.82
2022-08-05T11:56:50.485Z,21.83
2022-08-05T11:58:09.905Z,21.54
2022-08-05T11:58:53.154Z,21.48
2022-08-05T11:59:50.938Z,21.54
2022-08-05T12:00:48.098Z,21.48
2022-08-05T12:01:48.512Z,21.55
2022-08-05T12:02:49.799Z,22.13
2022-08-05T12:03:55.963Z,22.22
2022-08-05T12:04:59.267Z,22.88
2022-08-05T12:05:51.539Z,23.02
2022-08-05T12:06:49.127Z,22.72
2022-08-05T12:08:08.484Z,22.81
2022-08-05T12:08:52.339Z,23.28
2022-08-05T12:09:53.639Z,23.46
2022-08-05T12:10:51.702Z,24.24
2022-08-05T12:11:50.361Z,25.08
2022-08-05T12:12:59.643Z,25.58
2022-08-05T12:13:51.858Z,25.62
2022-08-05T12:14:51.175Z,25.28
2022-08-05T12:15:56.000Z,25.06
2022-08-05T12:16:53.592Z,24.66
2022-08-05T12:18:10.231Z,24.96
2022-08-05T12:18:53.510Z,24.88
2022-08-05T12:20:16.815Z,24.70
2022-08-05T12:20:53.910Z,24.85
2022-08-05T12:21:57.086Z,24.63
2022-08-05T12:22:53.475Z,25.17
2022-08-05T12:23:55.662Z,25.14
2022-08-05T12:24:55.852Z,25.10
2022-08-05T12:25:56.682Z,25.43
2022-08-05T12:26:55.585Z,25.21
2022-08-05T12:27:56.797Z,25.31
2022-08-05T12:28:57.976Z,25.50
2022-08-05T12:29:55.528Z,25.59
2022-08-05T12:30:57.677Z,25.66
2022-08-05T12:31:56.896Z,25.46
2022-08-05T12:32:58.365Z,25.50
2022-08-05T12:33:57.591Z,26.31
2022-08-05T12:34:56.847Z,27.12
2022-08-05T12:35:59.087Z,26.85
2022-08-05T12:36:58.470Z,25.80
2022-08-05T12:38:01.220Z,24.43
2022-08-05T12:38:59.943Z,23.95
2022-08-05T12:40:03.286Z,24.18
2022-08-05T12:40:59.666Z,24.08
2022-08-05T12:41:59.781Z,24.35
2022-08-05T12:43:03.153Z,24.48
2022-08-05T12:44:02.361Z,24.47
2022-08-05T12:45:00.775Z,24.14
2022-08-05T12:45:59.964Z,24.54
2022-08-05T12:47:01.755Z,24.54
2022-08-05T12:48:01.672Z,24.18
2022-08-05T12:49:12.949Z,23.65
2022-08-05T12:50:06.479Z,23.18
2022-08-05T12:51:02.682Z,22.72
2022-08-05T12:52:14.234Z,22.41
2022-08-05T12:53:02.823Z,22.06
2022-08-05T12:54:16.758Z,21.80
2022-08-05T12:55:03.416Z,21.51
2022-08-05T12:56:02.725Z,21.42